createdAt,value
2023-04-17T00:06:24.325Z,16.70
2023-04-17T00:14:32.363Z,16.50
2023-04-17T00:22:37.902Z,16.40
2023-04-17T00:30:46.163Z,16.40
2023-04-17T00:38:51.639Z,16.60
2023-04-17T00:47:00.194Z,16.60
2023-04-17T00:55:06.651Z,16.80
2023-04-17T01:03:15.038Z,16.70
2023-04-17T01:11:20.588Z,16.70
2023-04-17T01:19:29.606Z,16.60
2023-04-17T01:27:38.190Z,16.80
2023-04-17T01:35:43.842Z,16.50
2023-04-17T01:43:52.056Z,16.40
2023-04-17T01:51:57.587Z,16.60
2023-04-17T02:00:07.478Z,16.20
2023-04-17T02:08:17.929Z,15.90
2023-04-17T02:16:26.193Z,16.00
2023-04-17T02:24:31.798Z,15.20
2023-04-17T02:32:41.727Z,15.80
2023-04-17T02:40:47.291Z,15.90
2023-04-17T02:48:55.508Z,15.80
2023-04-17T02:57:02.041Z,15.90
2023-04-17T03:05:11.742Z,15.80
2023-04-17T03:13:17.298Z,15.40
2023-04-17T03:21:25.423Z,15.70
2023-04-17T03:29:31.526Z,16.00
2023-04-17T03:37:39.838Z,16.00
2023-04-17T03:45:45.594Z,16.20
2023-04-17T03:53:53.759Z,16.10
2023-04-17T04:01:59.383Z,15.80
2023-04-17T04:10:11.137Z,16.10
2023-04-17T04:18:17.926Z,16.30
2023-04-17T04:26:27.481Z,16.40
2023-04-17T04:34:36.662Z,16.10
2023-04-17T04:42:50.040Z,16.40
2023-04-17T04:51:07.601Z,16.50
2023-04-17T04:59:15.929Z,16.40
2023-04-17T05:07:27.625Z,16.40
2023-04-17T05:15:36.931Z,16.20
2023-04-17T05:23:43.004Z,16.10
2023-04-17T05:31:52.320Z,16.30
2023-04-17T05:40:16.441Z,15.60
2023-04-17T05:48:24.642Z,16.00
2023-04-17T05:56:32.522Z,16.00
2023-04-17T06:04:42.000Z,15.60
2023-04-17T06:12:47.946Z,15.70
2023-04-17T06:20:56.040Z,15.70
2023-04-17T06:29:01.590Z,16.20
2023-04-17T06:37:12.432Z,16.50
2023-04-17T06:45:18.870Z,16.60
2023-04-17T06:53:27.438Z,16.60
2023-04-17T07:01:33.048Z,17.10
2023-04-17T07:09:43.217Z,17.60
2023-04-17T07:17:48.747Z,18.30
2023-04-17T07:25:56.826Z,19.00
2023-04-17T07:34:02.298Z,19.60
2023-04-17T07:42:11.653Z,19.50
2023-04-17T07:50:17.481Z,19.30
2023-04-17T07:58:27.328Z,19.10
2023-04-17T08:06:32.753Z,20.00
2023-04-17T08:14:41.092Z,20.30
2023-04-17T08:22:48.957Z,20.20
2023-04-17T08:30:57.342Z,20.50
2023-04-17T08:39:02.842Z,20.60
2023-04-17T08:47:11.022Z,20.80
2023-04-17T08:55:17.896Z,20.20
2023-04-17T09:03:26.163Z,20.30
2023-04-17T09:11:31.796Z,21.00
2023-04-17T09:19:39.912Z,21.40
2023-04-17T09:27:45.516Z,22.10
2023-04-17T09:35:53.611Z,22.00
2023-04-17T09:44:02.231Z,23.20
2023-04-17T09:52:10.659Z,23.30
2023-04-17T10:00:17.776Z,23.10
2023-04-17T10:08:26.255Z,22.10
2023-04-17T10:16:39.246Z,22.10
2023-04-17T10:24:47.658Z,22.10
2023-04-17T10:33:25.949Z,23.10
2023-04-17T10:41:35.663Z,24.60
2023-04-17T10:49:52.129Z,25.40
2023-04-17T10:58:03.911Z,26.90
2023-04-17T11:06:10.513Z,25.70
2023-04-17T11:14:20.223Z,24.20
2023-04-17T11:22:25.809Z,23.10
2023-04-17T11:30:35.445Z,22.30
2023-04-17T11:38:49.104Z,21.30
2023-04-17T11:46:59.244Z,22.50
2023-04-17T11:55:04.806Z,23.10
2023-04-17T12:03:38.335Z,25.60
2023-04-17T12:11:43.844Z,29.40
2023-04-17T12:19:52.166Z,36.10
2023-04-17T12:27:59.467Z,43.60
2023-04-17T12:36:09.093Z,44.70
2023-04-17T12:44:15.023Z,47.40
2023-04-17T12:52:23.332Z,47.50
2023-04-17T13:00:28.968Z,46.80
2023-04-17T13:08:37.142Z,44.40
2023-04-17T13:16:42.580Z,37.30
2023-04-17T13:24:50.682Z,31.00
2023-04-17T13:32:56.175Z,27.70
2023-04-17T13:41:04.413Z,25.70
2023-04-17T13:49:10.531Z,24.50
2023-04-17T13:57:19.771Z,23.50
2023-04-17T14:05:26.963Z,23.00
2023-04-17T14:13:35.014Z,22.50
2023-04-17T14:21:40.535Z,21.80
2023-04-17T14:29:48.723Z,21.10
2023-04-17T14:37:54.192Z,20.90
2023-04-17T14:46:02.457Z,20.80
2023-04-17T14:54:08.627Z,21.10
2023-04-17T15:02:16.902Z,20.90
2023-04-17T15:10:22.447Z,21.00
2023-04-17T15:18:30.510Z,20.60
2023-04-17T15:26:36.051Z,20.80
2023-04-17T15:34:44.242Z,20.50
2023-04-17T15:42:49.757Z,20.50
2023-04-17T15:50:57.824Z,19.90
2023-04-17T15:59:03.327Z,19.30
2023-04-17T16:07:11.879Z,18.80
2023-04-17T16:15:20.047Z,18.80
2023-04-17T16:23:28.149Z,18.30
2023-04-17T16:31:33.626Z,18.50
2023-04-17T16:39:41.928Z,18.50
2023-04-17T16:47:47.461Z,18.60
2023-04-17T16:55:56.999Z,18.60
2023-04-17T17:04:02.641Z,18.20
2023-04-17T17:12:11.290Z,17.60
2023-04-17T17:20:16.964Z,17.10
2023-04-17T17:28:25.083Z,16.90
2023-04-17T17:36:31.576Z,16.90
2023-04-17T17:44:39.816Z,17.00
2023-04-17T17:52:45.310Z,16.70
2023-04-17T18:00:53.979Z,15.90
2023-04-17T18:08:59.925Z,15.90
2023-04-17T18:17:07.881Z,16.00
2023-04-17T18:25:15.307Z,15.80
2023-04-17T18:33:23.962Z,15.20
2023-04-17T18:41:29.869Z,15.30
2023-04-17T18:49:37.968Z,15.10
2023-04-17T18:57:43.537Z,14.80
2023-04-17T19:05:51.633Z,14.90
2023-04-17T19:13:57.269Z,14.80
2023-04-17T19:22:05.456Z,14.60
2023-04-17T19:30:12.467Z,14.50
2023-04-17T19:38:20.583Z,14.40
2023-04-17T19:46:28.009Z,14.40
2023-04-17T19:54:36.071Z,14.40
2023-04-17T20:02:41.719Z,14.30
2023-04-17T20:10:52.962Z,14.20
2023-04-17T20:18:58.603Z,14.20
2023-04-17T20:27:06.861Z,14.60
2023-04-17T20:35:13.452Z,14.70
2023-04-17T20:43:21.527Z,13.80
2023-04-17T20:51:28.080Z,14.10
2023-04-17T20:59:37.487Z,13.70
2023-04-17T21:07:42.902Z,13.50
2023-04-17T21:15:54.688Z,13.40
2023-04-17T21:24:00.289Z,13.80
2023-04-17T21:32:08.667Z,13.70
2023-04-17T21:40:15.454Z,14.00
2023-04-17T21:48:23.766Z,14.20
2023-04-17T21:56:29.232Z,14.10
2023-04-17T22:04:37.344Z,13.80
2023-04-17T22:12:42.800Z,13.90
2023-04-17T22:20:50.953Z,13.60
2023-04-17T22:28:56.371Z,13.50
2023-04-17T22:37:04.392Z,13.40
2023-04-17T22:45:10.763Z,13.40
2023-04-17T22:53:18.868Z,13.40
2023-04-17T23:01:24.405Z,13.40
2023-04-17T23:09:32.504Z,13.10
2023-04-17T23:17:38.066Z,13.30
2023-04-17T23:25:46.335Z,13.10
2023-04-17T23:33:51.736Z,13.00
2023-04-17T23:42:00.832Z,13.30
2023-04-17T23:50:06.466Z,12.90
2023-04-17T23:58:14.939Z,13.50
